createdAt,value
2019-04-20T00:00:56.361Z,82.50
2019-04-20T00:03:32.183Z,82.30
2019-04-20T00:06:01.455Z,82.30
2019-04-20T00:08:36.085Z,82.70
2019-04-20T00:11:12.700Z,82.10
2019-04-20T00:13:49.854Z,82.10
2019-04-20T00:16:12.608Z,82.80
2019-04-20T00:18:48.879Z,83.20
2019-04-20T00:21:35.712Z,83.70
2019-04-20T00:24:16.974Z,84.10
2019-04-20T00:27:11.773Z,84.10
2019-04-20T00:29:38.233Z,83.20
2019-04-20T00:32:01.631Z,82.90
2019-04-20T00:34:29.217Z,83.20
2019-04-20T00:36:54.166Z,82.90
2019-04-20T00:39:25.854Z,82.30
2019-04-20T00:42:03.781Z,81.90
2019-04-20T00:44:35.883Z,81.60
2019-04-20T00:47:17.039Z,81.30
2019-04-20T00:49:48.155Z,81.90
2019-04-20T00:52:27.673Z,82.70
2019-04-20T00:54:43.114Z,83.80
2019-04-20T00:57:24.766Z,83.20
2019-04-20T01:00:06.184Z,82.90
2019-04-20T01:02:32.638Z,82.80
2019-04-20T01:05:11.029Z,83.10
2019-04-20T01:07:54.696Z,83.60
2019-04-20T01:10:21.690Z,83.50
2019-04-20T01:13:01.383Z,83.50
2019-04-20T01:15:36.376Z,83.40
2019-04-20T01:17:58.202Z,83.70
2019-04-20T01:20:29.222Z,83.90
2019-04-20T01:23:06.714Z,83.70
2019-04-20T01:25:37.877Z,83.50
2019-04-20T01:28:24.566Z,83.60
2019-04-20T01:30:44.450Z,83.60
2019-04-20T01:33:25.167Z,83.60
2019-04-20T01:35:56.868Z,83.70
2019-04-20T01:38:31.959Z,83.30
2019-04-20T01:40:50.321Z,83.60
2019-04-20T01:43:22.576Z,82.60
2019-04-20T01:46:01.344Z,82.70
2019-04-20T01:48:30.781Z,82.60
2019-04-20T01:51:07.148Z,82.10
2019-04-20T01:53:53.749Z,81.50
2019-04-20T01:56:24.766Z,81.10
2019-04-20T01:59:15.971Z,80.70
2019-04-20T02:01:45.596Z,80.30
2019-04-20T02:04:30.404Z,80.50
2019-04-20T02:06:59.691Z,80.90
2019-04-20T02:09:31.159Z,81.60
2019-04-20T02:12:08.369Z,81.80
2019-04-20T02:14:41.212Z,82.10
2019-04-20T02:17:17.985Z,82.20
2019-04-20T02:19:59.805Z,82.20
2019-04-20T02:22:30.329Z,82.60
2019-04-20T02:24:44.834Z,82.60
2019-04-20T02:27:20.561Z,82.40
2019-04-20T02:30:14.219Z,82.70
2019-04-20T02:33:09.798Z,83.10
2019-04-20T02:35:42.681Z,83.40
2019-04-20T02:38:58.438Z,83.60
2019-04-20T02:40:50.607Z,84.10
2019-04-20T02:43:35.660Z,83.90
2019-04-20T02:45:51.003Z,83.90
2019-04-20T02:48:25.925Z,84.00
2019-04-20T02:51:04.535Z,84.10
2019-04-20T02:53:41.608Z,84.20
2019-04-20T02:56:09.063Z,84.80
2019-04-20T02:58:41.702Z,85.20
2019-04-20T03:01:03.912Z,85.40
2019-04-20T03:03:25.138Z,85.70
2019-04-20T03:06:04.637Z,85.90
2019-04-20T03:08:40.598Z,85.90
2019-04-20T03:11:24.360Z,86.00
2019-04-20T03:13:50.325Z,86.40
2019-04-20T03:16:16.685Z,86.40
2019-04-20T03:18:50.790Z,86.70
2019-04-20T03:21:24.771Z,86.90
2019-04-20T03:24:12.681Z,86.80
2019-04-20T03:26:51.996Z,86.60
2019-04-20T03:29:58.973Z,86.60
2019-04-20T03:32:57.316Z,86.50
2019-04-20T03:35:12.042Z,86.40
2019-04-20T03:37:42.199Z,86.50
2019-04-20T03:40:06.847Z,86.50
2019-04-20T03:42:24.450Z,86.50
2019-04-20T03:45:00.475Z,86.00
2019-04-20T03:47:38.399Z,86.10
2019-04-20T03:50:24.456Z,86.40
2019-04-20T03:53:19.139Z,86.40
2019-04-20T03:56:03.884Z,86.30
2019-04-20T03:58:50.529Z,86.30
2019-04-20T04:02:22.445Z,85.70
2019-04-20T04:04:34.442Z,85.10
2019-04-20T04:06:51.507Z,84.00
2019-04-20T04:09:31.629Z,80.80
2019-04-20T04:12:03.760Z,79.70
2019-04-20T04:14:24.031Z,78.90
2019-04-20T04:16:59.161Z,77.60
2019-04-20T04:19:31.713Z,76.30
2019-04-20T04:22:12.675Z,74.60
2019-04-20T04:24:52.461Z,74.50
2019-04-20T04:27:28.537Z,73.70
2019-04-20T04:29:58.288Z,73.30
2019-04-20T04:32:45.672Z,74.60
2019-04-20T04:35:03.068Z,76.30
2019-04-20T04:37:35.490Z,75.90
2019-04-20T04:40:23.534Z,75.40
2019-04-20T04:42:43.927Z,76.00
2019-04-20T04:45:01.613Z,74.30
2019-04-20T04:47:26.705Z,73.40
2019-04-20T04:50:05.603Z,73.00
2019-04-20T04:52:44.546Z,74.20
2019-04-20T04:55:16.177Z,75.80
2019-04-20T04:57:36.643Z,77.00
2019-04-20T05:00:11.144Z,77.20
2019-04-20T05:02:46.787Z,76.80
2019-04-20T05:05:41.259Z,78.00
2019-04-20T05:08:02.773Z,79.60
2019-04-20T05:10:26.656Z,80.50
2019-04-20T05:12:58.750Z,80.40
2019-04-20T05:15:46.177Z,78.30
2019-04-20T05:18:28.617Z,78.40
2019-04-20T05:20:58.799Z,77.10
2019-04-20T05:23:35.132Z,75.20
2019-04-20T05:26:30.984Z,74.50
2019-04-20T05:28:55.716Z,69.50
2019-04-20T05:31:23.546Z,68.30
2019-04-20T05:34:15.990Z,68.20
2019-04-20T05:36:45.108Z,67.90
2019-04-20T05:39:22.395Z,66.80
2019-04-20T05:41:45.766Z,65.30
2019-04-20T05:44:22.166Z,66.30
2019-04-20T05:49:33.146Z,69.20
2019-04-20T05:52:10.724Z,68.20
2019-04-20T05:54:39.095Z,67.60
2019-04-20T05:57:14.964Z,63.60
2019-04-20T05:59:49.382Z,62.50
2019-04-20T06:02:16.952Z,62.40
2019-04-20T06:09:54.547Z,58.10
2019-04-20T06:12:20.631Z,59.40
2019-04-20T06:15:08.025Z,58.40
2019-04-20T06:20:38.025Z,56.70
2019-04-20T06:23:34.308Z,53.20
2019-04-20T06:26:13.189Z,55.40
2019-04-20T06:28:26.819Z,53.20
2019-04-20T06:30:59.533Z,53.40
2019-04-20T06:34:27.701Z,51.60
2019-04-20T06:36:49.646Z,53.00
2019-04-20T06:39:24.327Z,53.90
2019-04-20T06:44:31.971Z,54.90
2019-04-20T06:47:11.665Z,54.70
2019-04-20T06:49:33.441Z,56.20
2019-04-20T06:52:26.170Z,58.50
2019-04-20T06:55:06.961Z,57.90
2019-04-20T06:57:56.336Z,57.70
2019-04-20T07:00:15.351Z,58.40
2019-04-20T07:03:01.880Z,59.40
2019-04-20T07:05:22.448Z,59.50
2019-04-20T07:07:53.400Z,58.90
2019-04-20T07:10:26.266Z,56.50
2019-04-20T07:15:30.250Z,54.80
2019-04-20T07:18:13.888Z,52.60
2019-04-20T07:21:12.789Z,52.80
2019-04-20T07:23:47.490Z,51.50
2019-04-20T07:26:25.044Z,48.60
2019-04-20T07:31:18.408Z,47.60
2019-04-20T07:33:52.396Z,47.70
2019-04-20T07:36:34.802Z,46.80
2019-04-20T07:39:03.931Z,46.90
2019-04-20T07:44:13.131Z,47.00
2019-04-20T07:49:07.657Z,45.40
2019-04-20T07:56:42.427Z,45.60
2019-04-20T07:58:58.668Z,46.30
2019-04-20T08:02:07.807Z,47.90
2019-04-20T08:04:52.437Z,47.70
2019-04-20T08:07:10.622Z,48.20
2019-04-20T08:15:24.068Z,48.20
2019-04-20T08:22:56.918Z,46.30
2019-04-20T08:25:16.193Z,48.90
2019-04-20T08:27:55.212Z,47.20
2019-04-20T08:34:04.818Z,45.70
2019-04-20T08:36:22.863Z,48.20
2019-04-20T08:39:16.973Z,49.80
2019-04-20T08:41:20.703Z,51.60
2019-04-20T08:43:58.977Z,51.20
2019-04-20T08:46:34.852Z,49.60
2019-04-20T08:56:31.862Z,49.30
2019-04-20T08:58:52.835Z,49.60
2019-04-20T09:01:27.169Z,50.30
2019-04-20T09:04:05.457Z,51.60
2019-04-20T09:06:41.785Z,53.10
2019-04-20T09:09:34.856Z,53.40
2019-04-20T09:11:55.626Z,51.60
2019-04-20T09:19:52.845Z,51.30
2019-04-20T09:22:50.650Z,48.00
2019-04-20T09:25:48.698Z,49.70
2019-04-20T09:28:15.662Z,50.30
2019-04-20T09:30:52.262Z,50.30
2019-04-20T09:33:51.347Z,50.00
2019-04-20T09:39:08.746Z,52.60
2019-04-20T09:41:58.901Z,54.00
2019-04-20T09:44:09.270Z,55.60
2019-04-20T09:46:48.575Z,57.60
2019-04-20T09:49:20.047Z,57.80
2019-04-20T09:52:05.229Z,56.60
2019-04-20T10:04:23.949Z,56.20
2019-04-20T10:06:55.260Z,55.60
2019-04-20T10:14:29.354Z,55.40
2019-04-20T10:17:00.180Z,54.80
2019-04-20T10:19:34.051Z,56.70
2019-04-20T10:22:04.554Z,58.80
2019-04-20T10:24:36.648Z,57.70
2019-04-20T10:27:08.384Z,61.50
2019-04-20T10:29:39.713Z,63.80
2019-04-20T10:32:14.188Z,64.30
2019-04-20T10:34:42.734Z,64.90
2019-04-20T10:37:19.828Z,64.80
2019-04-20T10:39:52.332Z,66.90
2019-04-20T10:42:24.268Z,64.80
2019-04-20T10:44:57.085Z,63.70
2019-04-20T10:47:27.342Z,63.00
2019-04-20T10:49:58.898Z,64.30
2019-04-20T10:52:29.860Z,64.20
2019-04-20T10:55:00.673Z,64.70
2019-04-20T10:57:33.424Z,65.40
2019-04-20T11:00:05.835Z,65.20
2019-04-20T11:02:39.362Z,67.80
2019-04-20T11:05:10.823Z,69.30
2019-04-20T11:07:44.251Z,69.10
2019-04-20T11:10:21.728Z,68.30
2019-04-20T11:12:48.425Z,67.20
2019-04-20T11:15:19.097Z,65.60
2019-04-20T11:17:51.267Z,64.30
2019-04-20T11:20:23.205Z,65.70
2019-04-20T11:22:54.174Z,64.60
2019-04-20T11:25:26.097Z,63.60
2019-04-20T11:27:58.426Z,63.10
2019-04-20T11:30:30.395Z,61.90
2019-04-20T11:33:02.227Z,61.90
2019-04-20T11:35:37.566Z,62.10
2019-04-20T11:38:07.011Z,61.50
2019-04-20T11:40:39.157Z,61.60
2019-04-20T11:43:11.375Z,59.50
2019-04-20T11:45:42.731Z,59.60
2019-04-20T11:48:15.764Z,61.30
2019-04-20T11:50:47.564Z,60.80
2019-04-20T11:53:19.478Z,62.00
2019-04-20T11:55:50.266Z,64.00
2019-04-20T11:58:21.764Z,63.40
2019-04-20T12:01:01.224Z,62.90
2019-04-20T12:03:35.404Z,62.70
2019-04-20T12:06:01.668Z,62.30
2019-04-20T12:08:32.654Z,62.90
2019-04-20T12:11:20.424Z,63.70
2019-04-20T12:13:36.692Z,63.00
2019-04-20T12:16:07.724Z,62.20
2019-04-20T12:18:38.533Z,61.80
2019-04-20T12:21:10.543Z,61.00
2019-04-20T12:23:42.335Z,59.60
2019-04-20T12:26:13.179Z,59.30
2019-04-20T12:28:43.836Z,58.90
2019-04-20T12:31:20.324Z,59.00
2019-04-20T12:33:48.318Z,58.60
2019-04-20T12:36:20.478Z,58.90
2019-04-20T12:38:51.343Z,58.70
2019-04-20T12:41:34.462Z,59.40
2019-04-20T12:43:54.483Z,60.00
2019-04-20T12:46:26.381Z,61.10
2019-04-20T12:48:57.786Z,61.60
2019-04-20T12:51:33.593Z,61.50
2019-04-20T12:54:00.842Z,62.20
2019-04-20T12:56:32.777Z,61.40
2019-04-20T12:59:03.725Z,61.10
2019-04-20T13:01:35.445Z,61.50
2019-04-20T13:04:08.932Z,61.10
2019-04-20T13:06:39.281Z,60.80
2019-04-20T13:09:12.792Z,60.60
2019-04-20T13:12:00.013Z,60.80
2019-04-20T13:15:12.167Z,60.40
2019-04-20T13:17:44.268Z,60.30
2019-04-20T13:20:16.153Z,59.90
2019-04-20T13:22:47.019Z,59.60
2019-04-20T13:25:18.799Z,59.90
2019-04-20T13:27:50.493Z,60.70
2019-04-20T13:30:21.809Z,60.70
2019-04-20T13:32:53.908Z,61.80
2019-04-20T13:35:26.083Z,62.10
2019-04-20T13:37:58.131Z,62.50
2019-04-20T13:40:31.005Z,63.00
2019-04-20T13:43:01.667Z,62.60
2019-04-20T13:45:32.942Z,62.30
2019-04-20T13:48:04.427Z,62.90
2019-04-20T13:50:36.025Z,63.00
2019-04-20T13:53:07.418Z,61.90
2019-04-20T13:55:40.102Z,62.30
2019-04-20T13:58:29.972Z,62.20
2019-04-20T14:01:14.678Z,61.40
2019-04-20T14:03:47.159Z,61.20
2019-04-20T14:06:18.514Z,60.50
2019-04-20T14:08:49.525Z,61.10
2019-04-20T14:11:21.067Z,61.80
2019-04-20T14:13:56.998Z,62.20
2019-04-20T14:16:25.113Z,61.50
2019-04-20T14:18:55.917Z,62.20
2019-04-20T14:21:26.503Z,61.40
2019-04-20T14:23:57.200Z,61.90
2019-04-20T14:26:28.939Z,62.20
2019-04-20T14:29:00.827Z,61.80
2019-04-20T14:31:32.183Z,61.70
2019-04-20T14:34:03.015Z,61.70
2019-04-20T14:36:34.868Z,61.90
2019-04-20T14:39:10.059Z,61.60
2019-04-20T14:41:42.258Z,61.40
2019-04-20T14:44:14.032Z,62.40
2019-04-20T14:46:45.525Z,62.70
2019-04-20T14:49:16.661Z,62.70
2019-04-20T14:51:47.769Z,62.40
2019-04-20T14:54:19.208Z,62.00
2019-04-20T14:56:51.591Z,62.50
2019-04-20T14:59:27.451Z,62.10
2019-04-20T15:02:02.791Z,62.50
2019-04-20T15:04:34.748Z,62.90
2019-04-20T15:07:06.693Z,63.00
2019-04-20T15:09:44.575Z,62.90
2019-04-20T15:12:16.893Z,63.00
2019-04-20T15:14:47.670Z,63.40
2019-04-20T15:17:25.653Z,62.60
2019-04-20T15:20:05.983Z,62.30
2019-04-20T15:22:43.400Z,62.30
2019-04-20T15:25:15.757Z,62.80
2019-04-20T15:27:47.997Z,62.80
2019-04-20T15:30:20.381Z,62.60
2019-04-20T15:32:52.370Z,63.10
2019-04-20T15:35:24.646Z,64.00
2019-04-20T15:37:55.500Z,64.40
2019-04-20T15:40:26.972Z,64.70
2019-04-20T15:43:05.963Z,64.80
2019-04-20T15:45:31.388Z,64.20
2019-04-20T15:48:02.233Z,64.30
2019-04-20T15:50:33.932Z,65.30
2019-04-20T15:53:05.905Z,65.10
2019-04-20T15:55:39.594Z,65.30
2019-04-20T15:58:10.254Z,66.10
2019-04-20T16:00:42.814Z,66.20
2019-04-20T16:03:29.674Z,66.40
2019-04-20T16:06:03.280Z,66.10
2019-04-20T16:08:36.702Z,66.10
2019-04-20T16:11:09.101Z,66.10
2019-04-20T16:13:45.775Z,66.10
2019-04-20T16:16:14.202Z,65.50
2019-04-20T16:18:50.727Z,65.90
2019-04-20T16:21:24.902Z,65.80
2019-04-20T16:23:59.146Z,66.50
2019-04-20T16:26:49.715Z,66.80
2019-04-20T16:29:21.691Z,66.70
2019-04-20T16:31:52.597Z,66.40
2019-04-20T16:34:23.434Z,67.30
2019-04-20T16:36:56.362Z,66.50
2019-04-20T16:39:26.550Z,66.90
2019-04-20T16:41:58.288Z,67.10
2019-04-20T16:44:29.391Z,67.20
2019-04-20T16:47:00.498Z,66.90
2019-04-20T16:49:31.273Z,68.40
2019-04-20T16:52:03.022Z,67.60
2019-04-20T16:54:33.835Z,67.60
2019-04-20T16:57:04.756Z,67.60
2019-04-20T16:59:41.404Z,68.20
2019-04-20T17:02:08.769Z,68.00
2019-04-20T17:04:40.822Z,67.50
2019-04-20T17:07:31.037Z,66.90
2019-04-20T17:10:02.312Z,66.40
2019-04-20T17:12:33.616Z,66.70
2019-04-20T17:15:05.572Z,67.50
2019-04-20T17:17:37.632Z,67.80
2019-04-20T17:20:09.453Z,67.80
2019-04-20T17:22:40.356Z,67.00
2019-04-20T17:25:12.293Z,67.30
2019-04-20T17:28:17.532Z,67.10
2019-04-20T17:31:07.555Z,67.50
2019-04-20T17:33:53.415Z,67.90
2019-04-20T17:36:20.816Z,68.20
2019-04-20T17:38:52.614Z,69.00
2019-04-20T17:41:42.957Z,69.00
2019-04-20T17:44:11.871Z,69.10
2019-04-20T17:46:35.752Z,68.60
2019-04-20T17:49:13.303Z,68.30
2019-04-20T17:51:56.873Z,68.20
2019-04-20T17:54:22.024Z,67.60
2019-04-20T17:56:54.314Z,67.60
2019-04-20T17:59:26.170Z,68.60
2019-04-20T18:02:30.579Z,68.90
2019-04-20T18:05:46.586Z,69.50
2019-04-20T18:08:20.437Z,69.50
2019-04-20T18:10:47.523Z,69.80
2019-04-20T18:13:13.723Z,70.20
2019-04-20T18:15:49.152Z,69.70
2019-04-20T18:18:40.885Z,70.30
2019-04-20T18:21:08.798Z,71.00
2019-04-20T18:23:44.357Z,72.00
2019-04-20T18:26:31.762Z,72.70
2019-04-20T18:29:03.677Z,74.00
2019-04-20T18:31:23.666Z,72.90
2019-04-20T18:34:00.685Z,73.30
2019-04-20T18:36:35.910Z,73.60
2019-04-20T18:39:06.622Z,74.10
2019-04-20T18:41:41.846Z,74.40
2019-04-20T18:44:10.631Z,74.50
2019-04-20T18:47:06.951Z,74.70
2019-04-20T18:49:27.226Z,75.30
2019-04-20T18:51:48.047Z,74.90
2019-04-20T18:54:22.331Z,75.30
2019-04-20T18:56:52.953Z,75.20
2019-04-20T18:59:31.930Z,74.70
2019-04-20T19:01:57.025Z,74.30
2019-04-20T19:04:28.060Z,74.70
2019-04-20T19:06:59.580Z,75.70
2019-04-20T19:09:32.337Z,76.10
2019-04-20T19:12:06.069Z,75.70
2019-04-20T19:15:04.998Z,76.20
2019-04-20T19:17:59.117Z,76.40
2019-04-20T19:20:30.746Z,76.30
2019-04-20T19:23:04.009Z,76.10
2019-04-20T19:25:38.996Z,76.10
2019-04-20T19:28:08.795Z,77.30
2019-04-20T19:30:47.007Z,77.30
2019-04-20T19:33:29.365Z,77.20
2019-04-20T19:35:53.015Z,77.80
2019-04-20T19:38:22.658Z,78.50
2019-04-20T19:40:58.404Z,78.10
2019-04-20T19:43:30.756Z,78.30
2019-04-20T19:46:36.655Z,78.40
2019-04-20T19:48:39.569Z,78.90
2019-04-20T19:51:25.493Z,80.30
2019-04-20T19:53:52.854Z,80.80
2019-04-20T19:56:16.630Z,80.90
2019-04-20T19:58:53.335Z,81.20
2019-04-20T20:01:09.299Z,81.10
2019-04-20T20:03:41.678Z,81.00
2019-04-20T20:06:23.726Z,81.30
2019-04-20T20:08:53.149Z,80.70
2019-04-20T20:11:26.549Z,80.50
2019-04-20T20:13:53.308Z,80.90
2019-04-20T20:16:30.431Z,81.20
2019-04-20T20:19:07.437Z,82.40
2019-04-20T20:21:46.742Z,83.30
2019-04-20T20:23:59.747Z,81.60
2019-04-20T20:26:37.016Z,81.30
2019-04-20T20:29:13.447Z,81.30
2019-04-20T20:31:54.029Z,79.80
2019-04-20T20:34:17.001Z,81.40
2019-04-20T20:36:47.106Z,82.50
2019-04-20T20:39:21.304Z,83.50
2019-04-20T20:41:58.071Z,84.50
2019-04-20T20:44:33.098Z,85.10
2019-04-20T20:46:59.508Z,85.00
2019-04-20T20:49:46.807Z,85.10
2019-04-20T20:52:17.057Z,85.60
2019-04-20T20:54:41.355Z,85.20
2019-04-20T20:57:08.939Z,83.90
2019-04-20T20:59:42.707Z,83.80
2019-04-20T21:02:14.557Z,83.50
2019-04-20T21:04:39.528Z,83.30
2019-04-20T21:07:10.974Z,83.20
2019-04-20T21:09:41.883Z,83.00
2019-04-20T21:12:16.272Z,83.60
2019-04-20T21:14:46.830Z,83.90
2019-04-20T21:17:21.811Z,85.10
2019-04-20T21:20:08.482Z,85.20
2019-04-20T21:22:41.292Z,85.70
2019-04-20T21:24:56.977Z,85.00
2019-04-20T21:27:27.828Z,84.90
2019-04-20T21:30:01.343Z,84.40
2019-04-20T21:32:33.080Z,84.80
2019-04-20T21:35:07.300Z,84.60
2019-04-20T21:37:37.044Z,85.20
2019-04-20T21:40:21.645Z,85.30
2019-04-20T21:42:48.182Z,84.50
2019-04-20T21:45:19.465Z,85.40
2019-04-20T21:47:47.001Z,84.10
2019-04-20T21:50:34.886Z,84.30
2019-04-20T21:52:55.135Z,84.10
2019-04-20T21:55:23.756Z,84.10
2019-04-20T21:58:00.013Z,84.40
2019-04-20T22:01:07.174Z,84.70
2019-04-20T22:03:26.780Z,84.70
2019-04-20T22:06:06.823Z,83.50
2019-04-20T22:08:44.621Z,83.40
2019-04-20T22:11:11.692Z,84.00
2019-04-20T22:13:44.609Z,84.20
2019-04-20T22:16:16.705Z,84.00
2019-04-20T22:18:53.990Z,83.50
2019-04-20T22:21:26.493Z,83.20
2019-04-20T22:24:04.170Z,85.10
2019-04-20T22:26:31.005Z,85.60
2019-04-20T22:28:56.364Z,86.10
2019-04-20T22:31:27.185Z,86.40
2019-04-20T22:34:00.809Z,86.70
2019-04-20T22:36:33.865Z,86.30
2019-04-20T22:39:11.743Z,86.20
2019-04-20T22:41:58.611Z,87.10
2019-04-20T22:44:26.651Z,82.70
2019-04-20T22:46:58.537Z,76.40
2019-04-20T22:49:44.237Z,73.90
2019-04-20T22:52:14.287Z,72.60
2019-04-20T22:54:52.198Z,72.30
2019-04-20T22:57:22.930Z,71.60
2019-04-20T22:59:52.364Z,71.20
2019-04-20T23:02:11.737Z,71.10
2019-04-20T23:04:44.602Z,71.70
2019-04-20T23:07:16.736Z,71.80
2019-04-20T23:09:54.413Z,70.40
2019-04-20T23:12:23.299Z,69.50
2019-04-20T23:14:52.453Z,70.30
2019-04-20T23:17:29.603Z,72.80
2019-04-20T23:19:59.503Z,72.90
2019-04-20T23:22:34.812Z,71.00
2019-04-20T23:24:59.931Z,71.80
2019-04-20T23:27:32.053Z,71.50
2019-04-20T23:30:11.109Z,70.90
2019-04-20T23:32:36.211Z,70.90
2019-04-20T23:35:11.870Z,71.50
2019-04-20T23:37:41.558Z,72.80
2019-04-20T23:40:13.699Z,72.90
2019-04-20T23:42:51.715Z,72.50
2019-04-20T23:45:50.739Z,72.50
2019-04-20T23:48:35.323Z,73.40
2019-04-20T23:51:27.858Z,74.30
2019-04-20T23:53:49.197Z,75.10
2019-04-20T23:56:07.913Z,74.90
2019-04-20T23:58:44.143Z,75.10
